Time;durP1;ratioP1;P1;durP2;ratioP2;P2;SDS_P1;SDS_P2;PMS_P1;PMS_P2;Temp;Humidity;BMP_temperature;BMP_pressure;BME280_temperature;BME280_humidity;BME280_pressure;Samples;Min_cycle;Max_cycle;Signal;HPM_P1;HPM_P2
2021/12/18 00:02:10;;;;;;;3.40;2.03;;;;;;;14.59;64.62;103949.50;5049959;28;20030;-64
2021/12/18 00:04:36;;;;;;;2.42;1.95;;;;;;;14.60;64.39;103955.59;5056833;28;20055;-63
2021/12/18 00:07:02;;;;;;;2.73;2.10;;;;;;;14.61;64.37;103962.56;5061665;28;20028;-66
2021/12/18 00:09:30;;;;;;;3.10;2.10;;;;;;;14.60;64.31;103951.25;5067045;28;20491;-65
2021/12/18 00:11:56;;;;;;;2.38;2.10;;;;;;;14.59;64.38;103940.75;5049167;28;20029;-65
2021/12/18 00:14:22;;;;;;;2.10;1.90;;;;;;;14.59;64.45;103940.75;5051666;28;20107;-64
2021/12/18 00:16:47;;;;;;;2.63;2.10;;;;;;;14.55;64.14;103931.13;5063302;28;20116;-65
2021/12/18 00:19:13;;;;;;;2.57;2.00;;;;;;;14.55;64.24;103931.97;5052287;28;20029;-64
2021/12/18 00:21:38;;;;;;;2.43;2.10;;;;;;;14.59;64.23;103935.53;5068741;28;20033;-65
2021/12/18 00:24:05;;;;;;;2.97;2.20;;;;;;;14.49;64.15;103924.91;5055813;28;20032;-65
2021/12/18 00:26:30;;;;;;;2.17;1.88;;;;;;;14.51;64.16;103931.06;5065604;28;20052;-65
2021/12/18 00:28:56;;;;;;;2.63;2.17;;;;;;;14.59;64.20;103943.38;5062637;28;20483;-65
2021/12/18 00:31:21;;;;;;;2.67;2.10;;;;;;;14.60;64.19;103934.69;5058148;28;20090;-65
2021/12/18 00:33:47;;;;;;;3.23;2.03;;;;;;;14.59;64.17;103922.47;5068867;28;20086;-64
2021/12/18 00:36:12;;;;;;;3.47;2.13;;;;;;;14.56;64.31;103919.81;5045284;28;20040;-65
2021/12/18 00:38:39;;;;;;;4.80;2.23;;;;;;;14.61;64.41;103936.44;5038310;28;20029;-64
2021/12/18 00:43:34;;;;;;;2.60;2.00;;;;;;;14.61;64.12;103928.59;5031275;28;20038;-65
2021/12/18 00:46:00;;;;;;;2.30;2.00;;;;;;;14.57;64.07;103916.34;5033721;28;20055;-64
2021/12/18 00:48:25;;;;;;;2.75;2.20;;;;;;;14.58;64.35;103921.59;5042956;28;20034;-65
2021/12/18 00:50:51;;;;;;;2.47;2.10;;;;;;;14.59;64.36;103912.00;5043799;28;20035;-65
2021/12/18 00:53:16;;;;;;;2.50;1.90;;;;;;;14.60;64.43;103919.00;5044806;28;20041;-65
2021/12/18 00:55:43;;;;;;;3.70;2.10;;;;;;;14.56;64.30;103911.97;5045875;28;20031;-65
2021/12/18 00:58:08;;;;;;;3.45;2.25;;;;;;;14.55;64.29;103912.81;5041875;28;20134;-64
2021/12/18 01:00:34;;;;;;;3.43;2.00;;;;;;;14.59;64.50;103917.22;5045958;28;20546;-65
2021/12/18 01:03:01;;;;;;;2.30;1.80;;;;;;;14.55;64.45;103911.06;5043536;28;20040;-65
2021/12/18 01:05:29;;;;;;;2.25;1.90;;;;;;;14.56;64.60;103906.75;5044217;28;20431;-65
2021/12/18 01:07:57;;;;;;;2.67;2.00;;;;;;;14.55;64.64;103910.22;5044339;28;20057;-64
2021/12/18 01:12:53;;;;;;;3.10;2.10;;;;;;;14.48;64.40;103888.31;5035240;28;20040;-65
2021/12/18 01:15:44;;;;;;;2.20;1.95;;;;;;;14.51;64.29;103885.75;5035328;28;20040;-64
2021/12/18 01:23:36;;;;;;;2.00;1.80;;;;;;;14.48;64.63;103886.56;5035214;28;20047;-64
2021/12/18 01:26:03;;;;;;;2.63;1.70;;;;;;;14.46;64.54;103879.56;5035012;28;20045;-65
2021/12/18 01:28:30;;;;;;;2.33;1.90;;;;;;;14.53;64.42;103894.47;5035151;28;20464;-65
2021/12/18 01:30:56;;;;;;;2.83;1.90;;;;;;;14.51;64.49;103897.09;5035063;28;20029;-64
2021/12/18 01:33:22;;;;;;;1.70;1.60;;;;;;;14.50;64.26;103902.28;5035443;28;20176;-65
2021/12/18 01:35:48;;;;;;;2.87;2.10;;;;;;;14.51;64.49;103897.09;5035124;28;20096;-65
2021/12/18 01:38:13;;;;;;;2.95;1.55;;;;;;;14.53;64.57;103902.31;5034838;28;20060;-65
2021/12/18 01:40:40;;;;;;;2.60;2.00;;;;;;;14.49;64.63;103904.00;5034862;28;20120;-64
2021/12/18 01:53:52;;;;;;;2.60;1.80;;;;;;;14.50;64.44;103920.59;5035327;28;20053;-65
2021/12/18 01:56:18;;;;;;;2.30;1.90;;;;;;;14.49;64.26;103921.44;5034873;28;20049;-65
2021/12/18 01:58:45;;;;;;;1.73;1.63;;;;;;;14.52;64.25;103927.59;5034500;28;20061;-65
2021/12/18 02:01:11;;;;;;;2.10;1.80;;;;;;;14.51;64.21;103932.81;5034798;28;20026;-65
2021/12/18 02:03:36;;;;;;;1.70;1.60;;;;;;;14.51;64.32;103927.56;5035228;28;20040;-66
2021/12/18 02:06:02;;;;;;;1.73;1.63;;;;;;;14.51;64.43;103938.91;5035053;28;20460;-65
2021/12/18 02:08:29;;;;;;;1.83;1.70;;;;;;;14.51;64.33;103930.19;5035181;28;20034;-66
2021/12/18 02:11:01;;;;;;;1.67;1.58;;;;;;;14.50;64.38;103926.69;5034872;28;20435;-65
2021/12/18 02:21:29;;;;;;;1.75;1.65;;;;;;;14.50;64.44;103929.28;5035060;28;20091;-65
2021/12/18 02:23:56;;;;;;;3.17;1.90;;;;;;;14.49;64.60;103926.66;5034445;28;20041;-66
2021/12/18 02:26:22;;;;;;;2.90;1.77;;;;;;;14.50;64.28;103920.59;5034326;28;20064;-65
2021/12/18 02:28:49;;;;;;;1.83;1.67;;;;;;;14.49;64.45;103921.44;5034951;28;20079;-66
2021/12/18 02:31:14;;;;;;;;;;;;;;;14.58;64.22;103912.88;5035511;28;20033;-65
2021/12/18 02:33:40;;;;;;;2.00;1.50;;;;;;;14.42;64.22;103902.16;5034695;28;20252;-66
2021/12/18 02:36:09;;;;;;;2.90;1.77;;;;;;;14.48;64.33;103907.47;5034795;28;20045;-65
2021/12/18 02:39:02;;;;;;;2.67;1.70;;;;;;;14.51;64.37;103912.75;5034407;28;20268;-65
2021/12/18 02:41:38;;;;;;;2.25;1.80;;;;;;;14.48;64.18;103894.41;5034541;28;20468;-66
2021/12/18 02:44:09;;;;;;;3.35;1.95;;;;;;;14.53;64.40;103912.78;5034746;28;20132;-66
2021/12/18 02:46:35;;;;;;;1.85;1.70;;;;;;;14.50;64.23;103897.94;5034316;28;20038;-65
2021/12/18 02:49:10;;;;;;;2.00;1.80;;;;;;;14.51;64.12;103897.09;5032737;28;20052;-66
2021/12/18 02:51:35;;;;;;;2.47;1.70;;;;;;;14.48;64.49;103888.31;5034509;28;20196;-65
2021/12/18 02:54:01;;;;;;;2.40;1.97;;;;;;;14.47;64.13;103886.56;5034341;28;20036;-66
2021/12/18 02:56:27;;;;;;;2.40;1.93;;;;;;;14.46;64.26;103890.00;5034259;28;20075;-66
2021/12/18 02:58:58;;;;;;;3.23;1.60;;;;;;;14.45;64.14;103881.31;5034369;28;20472;-65
2021/12/18 03:01:26;;;;;;;1.80;1.70;;;;;;;14.50;64.38;103889.22;5034434;28;20052;-66
2021/12/18 03:03:53;;;;;;;1.75;1.65;;;;;;;14.50;64.48;103890.09;5033837;28;20064;-66
2021/12/18 03:06:36;;;;;;;2.28;1.80;;;;;;;14.49;64.29;103882.25;5034016;28;20037;-65
2021/12/18 03:25:26;;;;;;;1.52;1.42;;;;;;;14.50;64.08;103876.16;5033855;28;20507;-65
2021/12/18 03:27:52;;;;;;;2.30;1.80;;;;;;;14.40;64.11;103862.06;5033619;28;20061;-66
2021/12/18 03:30:18;;;;;;;2.13;1.77;;;;;;;14.44;64.29;103870.81;5033947;28;20034;-66
2021/12/18 03:32:44;;;;;;;1.90;1.70;;;;;;;14.44;64.34;103869.09;5033953;28;20120;-66
2021/12/18 03:35:10;;;;;;;1.67;1.57;;;;;;;14.46;64.49;103870.00;5033400;28;20553;-65
2021/12/18 03:37:36;;;;;;;1.58;1.30;;;;;;;14.50;64.24;103877.03;5033478;28;20083;-64
2021/12/18 03:40:08;;;;;;;1.65;1.55;;;;;;;14.44;64.42;103876.94;5033810;28;20025;-66
2021/12/18 03:42:33;;;;;;;1.73;1.52;;;;;;;14.44;64.21;103878.66;5033605;28;20435;-66
2021/12/18 03:44:59;;;;;;;2.23;1.63;;;;;;;14.40;64.30;103864.66;5033705;28;20034;-65
2021/12/18 03:47:24;;;;;;;2.03;1.60;;;;;;;14.48;64.35;103877.88;5033061;28;20116;-64
2021/12/18 03:49:50;;;;;;;1.53;1.43;;;;;;;14.47;64.23;103883.94;5033060;28;20029;-65
2021/12/18 03:52:16;;;;;;;1.77;1.53;;;;;;;14.47;64.39;103886.56;5033379;28;20419;-65
2021/12/18 03:54:41;;;;;;;1.50;1.40;;;;;;;14.39;64.42;103864.66;5033296;28;20033;-64
2021/12/18 03:57:06;;;;;;;2.47;1.40;;;;;;;14.44;64.37;103878.66;5033298;28;20025;-65
2021/12/18 03:59:33;;;;;;;1.70;1.60;;;;;;;14.40;64.42;103869.03;5033377;28;20448;-66
2021/12/18 04:01:58;;;;;;;2.33;1.35;;;;;;;14.43;64.20;103875.19;5032986;28;20519;-66
2021/12/18 04:04:24;;;;;;;2.83;1.50;;;;;;;14.44;64.26;103879.56;5032546;28;20104;-64
2021/12/18 04:06:50;;;;;;;1.60;1.40;;;;;;;14.48;64.42;103885.69;5033050;28;20060;-65
2021/12/18 04:09:15;;;;;;;1.95;1.77;;;;;;;14.48;64.45;103880.47;5032924;28;20030;-65
2021/12/18 04:11:41;;;;;;;2.47;1.70;;;;;;;14.43;64.46;103863.81;5033125;28;20044;-66
2021/12/18 04:14:07;;;;;;;1.65;1.55;;;;;;;14.46;64.43;103875.25;5033181;28;20025;-66
2021/12/18 04:16:34;;;;;;;1.60;1.50;;;;;;;14.40;64.61;103871.63;5033190;28;20068;-66
2021/12/18 04:19:01;;;;;;;1.55;1.45;;;;;;;14.46;64.33;103877.84;5032617;28;20034;-64
2021/12/18 04:21:28;;;;;;;1.73;1.50;;;;;;;14.42;64.35;103875.13;5032401;28;20487;-65
2021/12/18 04:23:53;;;;;;;1.42;1.33;;;;;;;14.43;64.20;103874.28;5032868;28;20463;-66
2021/12/18 04:26:19;;;;;;;1.50;1.40;;;;;;;14.48;64.19;103881.34;5032767;28;20095;-65
2021/12/18 04:28:44;;;;;;;1.77;1.60;;;;;;;14.46;64.35;103880.47;5032877;28;20030;-65
2021/12/18 04:31:09;;;;;;;1.13;1.10;;;;;;;14.45;64.36;103880.41;5032922;28;20030;-65
2021/12/18 04:33:35;;;;;;;1.37;1.27;;;;;;;14.46;64.22;103885.69;5032809;28;20056;-65
2021/12/18 04:36:00;;;;;;;1.90;1.53;;;;;;;14.47;64.26;103876.97;5032570;28;20041;-65
2021/12/18 04:38:26;;;;;;;1.70;1.60;;;;;;;14.48;64.43;103883.09;5032761;28;20111;-65
2021/12/18 04:40:51;;;;;;;2.10;1.63;;;;;;;14.47;64.13;103886.56;5033011;28;20420;-65
2021/12/18 04:43:17;;;;;;;1.33;1.23;;;;;;;14.45;64.36;103881.31;5032910;28;20026;-66
2021/12/18 04:45:42;;;;;;;1.60;1.37;;;;;;;14.43;64.42;103885.63;5032861;28;20073;-65
2021/12/18 04:48:08;;;;;;;1.87;1.50;;;;;;;14.46;64.49;103882.19;5032737;28;20087;-65
2021/12/18 04:50:33;;;;;;;1.57;1.47;;;;;;;14.47;64.28;103889.16;5032661;28;20025;-66
2021/12/18 04:52:58;;;;;;;3.30;1.60;;;;;;;14.47;64.28;103897.88;5032634;28;20034;-65
2021/12/18 04:55:24;;;;;;;1.60;1.50;;;;;;;14.43;64.20;103890.84;5032675;28;20057;-66
2021/12/18 04:57:51;;;;;;;1.60;1.50;;;;;;;14.46;64.32;103888.31;5031515;28;20480;-66
2021/12/18 05:00:20;;;;;;;1.63;1.52;;;;;;;14.46;64.33;103905.69;5031459;28;20034;-66
2021/12/18 05:02:48;;;;;;;1.73;1.63;;;;;;;14.40;64.35;103895.16;5031369;28;20018;-66
2021/12/18 05:05:14;;;;;;;1.80;1.50;;;;;;;14.46;64.14;103903.09;5032354;28;20037;-64
2021/12/18 05:07:41;;;;;;;1.90;1.52;;;;;;;14.43;64.27;103901.31;5032335;28;20037;-65
2021/12/18 05:10:08;;;;;;;1.98;1.45;;;;;;;14.45;64.42;103902.22;5032520;28;20037;-66
2021/12/18 05:12:34;;;;;;;1.58;1.45;;;;;;;14.46;64.20;103895.25;5032432;28;20037;-65
2021/12/18 05:14:59;;;;;;;1.60;1.50;;;;;;;14.48;64.24;103898.78;5032610;28;20036;-66
2021/12/18 05:17:25;;;;;;;1.87;1.53;;;;;;;14.48;64.43;103911.84;5032328;28;20379;-64
2021/12/18 05:19:51;;;;;;;1.70;1.60;;;;;;;14.45;64.45;103894.38;5031980;28;20033;-65
2021/12/18 05:22:16;;;;;;;2.00;1.53;;;;;;;14.45;64.50;103885.66;5032325;28;20116;-66
2021/12/18 05:24:41;;;;;;;1.40;1.30;;;;;;;14.46;64.49;103887.41;5032420;28;20400;-65
2021/12/18 05:27:07;;;;;;;1.80;1.70;;;;;;;14.49;64.22;103892.69;5030829;28;20061;-65
2021/12/18 05:29:32;;;;;;;2.13;1.60;;;;;;;14.46;64.26;103900.47;5031231;28;20061;-65
2021/12/18 05:31:58;;;;;;;2.40;1.70;;;;;;;14.42;64.28;103890.81;5032268;28;20114;-65
2021/12/18 05:34:25;;;;;;;1.90;1.70;;;;;;;14.36;64.35;103884.63;5033606;28;20036;-65
2021/12/18 05:39:29;;;;;;;1.55;1.45;;;;;;;14.43;64.53;103897.78;5036186;28;20498;-65
2021/12/18 05:41:56;;;;;;;1.52;1.42;;;;;;;14.42;64.46;103890.81;5036120;28;20470;-65
2021/12/18 05:44:25;;;;;;;;;;;;;;;14.55;64.11;103904.97;5036272;28;20064;-66
2021/12/18 05:46:52;;;;;;;1.83;1.70;;;;;;;14.48;64.26;103906.59;5035023;28;19919;-65
2021/12/18 05:49:17;;;;;;;;;;;;;;;14.57;64.26;103913.75;5035701;28;20407;-64
2021/12/18 05:51:43;;;;;;;1.60;1.50;;;;;;;14.47;64.50;103900.47;5035741;28;19920;-65
2021/12/18 05:54:09;;;;;;;1.47;1.37;;;;;;;14.48;64.48;103907.47;5035788;28;20068;-66
2021/12/18 05:56:35;;;;;;;1.88;1.60;;;;;;;14.48;64.30;103904.00;5035427;28;20542;-65
2021/12/18 05:59:01;;;;;;;1.40;1.30;;;;;;;14.47;64.62;103905.72;5034376;28;20025;-66
2021/12/18 06:01:26;;;;;;;3.00;1.47;;;;;;;14.43;64.49;103893.47;5034965;28;20064;-65
2021/12/18 06:03:52;;;;;;;1.83;1.57;;;;;;;14.44;64.52;103897.84;5035121;28;20029;-66
2021/12/18 06:06:18;;;;;;;1.80;1.70;;;;;;;14.46;64.49;103911.81;5035054;28;20072;-65
2021/12/18 06:08:43;;;;;;;1.50;1.40;;;;;;;14.42;64.47;103896.94;5036085;28;20033;-65
2021/12/18 06:11:15;;;;;;;1.87;1.67;;;;;;;14.45;64.49;103901.31;5043089;28;20140;-65
2021/12/18 06:13:42;;;;;;;1.52;1.42;;;;;;;14.42;64.50;103890.81;5054902;28;20075;-65
2021/12/18 06:16:07;;;;;;;1.95;1.75;;;;;;;14.45;64.40;103901.31;5054618;28;20104;-65
2021/12/18 06:18:37;;;;;;;2.00;1.57;;;;;;;14.45;64.46;103893.47;5055112;28;20112;-64
2021/12/18 06:21:03;;;;;;;1.67;1.40;;;;;;;14.45;64.27;103902.22;5055049;28;20064;-66
2021/12/18 06:23:29;;;;;;;1.60;1.50;;;;;;;14.45;64.53;103893.47;5055037;28;20041;-65
2021/12/18 06:25:55;;;;;;;1.70;1.60;;;;;;;14.41;64.37;103886.47;5054582;28;20037;-65
2021/12/18 06:28:21;;;;;;;1.60;1.50;;;;;;;14.44;64.37;103891.72;5054807;28;20033;-66
2021/12/18 06:30:46;;;;;;;1.50;1.40;;;;;;;14.45;64.15;103893.47;5054330;28;20075;-65
2021/12/18 06:33:11;;;;;;;1.67;1.57;;;;;;;14.45;64.35;103883.94;5045042;28;20037;-65
2021/12/18 06:35:37;;;;;;;1.60;1.50;;;;;;;14.45;64.56;103878.69;5034894;28;20091;-66
2021/12/18 06:38:02;;;;;;;1.87;1.63;;;;;;;14.43;64.48;103879.50;5035233;28;20060;-66
2021/12/18 06:40:28;;;;;;;2.90;1.70;;;;;;;14.46;64.33;103890.00;5033685;28;20029;-65
2021/12/18 06:42:53;;;;;;;1.40;1.30;;;;;;;14.44;64.31;103892.63;5034602;28;20112;-66
2021/12/18 06:45:18;;;;;;;3.03;1.43;;;;;;;14.45;64.53;103894.38;5034451;28;20384;-65
2021/12/18 06:47:44;;;;;;;1.47;1.30;;;;;;;14.36;64.45;103881.13;5034095;28;20087;-65
2021/12/18 06:50:09;;;;;;;1.27;1.27;;;;;;;14.41;64.46;103889.94;5034815;28;20113;-66
2021/12/18 06:52:35;;;;;;;1.60;1.50;;;;;;;14.46;64.41;103890.00;5034729;28;20037;-65
2021/12/18 06:55:00;;;;;;;1.93;1.47;;;;;;;14.45;64.33;103893.47;5034677;28;20037;-65
2021/12/18 06:57:26;;;;;;;1.47;1.33;;;;;;;14.43;64.54;103879.50;5034447;28;20426;-65
2021/12/18 06:59:51;;;;;;;1.63;1.47;;;;;;;14.45;64.40;103886.53;5032993;28;20025;-65
2021/12/18 07:02:17;;;;;;;1.70;1.47;;;;;;;14.44;64.37;103883.88;5033840;28;20471;-65
2021/12/18 07:04:42;;;;;;;1.83;1.73;;;;;;;14.44;64.48;103892.63;5034237;28;20033;-65
2021/12/18 07:07:08;;;;;;;1.43;1.33;;;;;;;14.45;64.29;103883.03;5034319;28;20037;-65
2021/12/18 07:09:33;;;;;;;1.63;1.40;;;;;;;14.43;64.35;103882.13;5034276;28;20033;-65
2021/12/18 07:11:58;;;;;;;1.67;1.57;;;;;;;14.45;64.37;103888.25;5033866;28;20032;-65
2021/12/18 07:14:24;;;;;;;1.50;1.40;;;;;;;14.46;64.17;103890.00;5033734;28;20095;-64
2021/12/18 07:16:50;;;;;;;1.60;1.50;;;;;;;14.34;64.36;103877.63;5033433;28;20045;-65
2021/12/18 07:19:15;;;;;;;1.90;1.70;;;;;;;14.44;64.42;103891.72;5034151;28;20033;-66
2021/12/18 07:21:41;;;;;;;1.50;1.40;;;;;;;14.39;64.49;103878.56;5043028;28;20056;-65
2021/12/18 07:24:06;;;;;;;2.07;1.70;;;;;;;14.44;64.52;103886.50;5042860;28;20104;-65
2021/12/18 07:26:32;;;;;;;1.60;1.50;;;;;;;14.44;64.37;103891.72;5043968;28;20083;-64
2021/12/18 07:28:59;;;;;;;1.60;1.50;;;;;;;14.44;64.31;103896.94;5048427;28;20068;-64
2021/12/18 07:31:24;;;;;;;1.77;1.58;;;;;;;14.34;64.58;103888.94;5052054;28;20590;-64
2021/12/18 07:33:49;;;;;;;1.87;1.50;;;;;;;14.40;64.47;103889.94;5045783;28;20116;-65
2021/12/18 07:36:15;;;;;;;7.53;1.80;;;;;;;14.46;64.49;103890.91;5033235;28;20033;-62
2021/12/18 07:38:41;;;;;;;3.20;2.00;;;;;;;14.51;64.35;103894.47;5042293;28;20072;-79
2021/12/18 07:41:07;;;;;;;6.57;2.17;;;;;;;14.56;64.39;103894.53;5050589;28;20033;-79
2021/12/18 07:43:32;;;;;;;6.43;2.20;;;;;;;14.58;64.06;103897.22;5046318;28;20053;-78
2021/12/18 07:45:58;;;;;;;4.50;2.20;;;;;;;14.54;63.70;103890.16;5042274;28;20031;-73
2021/12/18 07:48:23;;;;;;;3.90;2.40;;;;;;;14.61;63.89;103905.97;5009735;28;20480;-76
2021/12/18 07:50:48;;;;;;;3.80;2.30;;;;;;;14.62;63.83;103902.50;5047807;28;20025;-77
2021/12/18 07:53:14;;;;;;;4.57;2.20;;;;;;;14.64;63.38;103905.13;5033996;28;20460;-78
2021/12/18 07:55:39;;;;;;;5.60;2.40;;;;;;;14.61;63.63;103905.97;5034086;28;20030;-79
2021/12/18 07:58:04;;;;;;;5.63;2.40;;;;;;;14.63;63.55;103909.50;5044001;28;20025;-79
2021/12/18 08:00:30;;;;;;;3.57;2.33;;;;;;;14.64;63.46;103902.53;5015214;28;20494;-79
2021/12/18 08:02:56;;;;;;;4.57;2.40;;;;;;;14.63;63.15;103912.09;5035576;28;20026;-79
2021/12/18 08:05:21;;;;;;;5.07;2.40;;;;;;;14.62;63.20;103907.72;5022185;28;20029;-80
2021/12/18 08:07:47;;;;;;;3.07;2.30;;;;;;;14.63;63.30;103905.97;5028695;28;20116;-80
2021/12/18 08:10:12;;;;;;;4.73;2.50;;;;;;;14.60;63.36;103906.81;5032573;28;20365;-77
2021/12/18 08:12:38;;;;;;;3.10;2.30;;;;;;;14.62;63.31;103907.72;5024418;28;20163;-77
2021/12/18 08:15:04;;;;;;;4.53;2.70;;;;;;;14.60;63.15;103905.94;5040771;28;20095;-77
2021/12/18 08:17:30;;;;;;;5.85;2.72;;;;;;;14.60;63.23;103904.22;5039489;28;20030;-76
2021/12/18 08:19:55;;;;;;;5.17;2.63;;;;;;;14.58;62.94;103899.81;5026229;28;20082;-76
2021/12/18 08:22:21;;;;;;;7.10;2.53;;;;;;;14.60;63.10;103901.59;5020355;28;20047;-80
2021/12/18 08:24:46;;;;;;;6.40;2.80;;;;;;;14.61;62.87;103905.97;5041934;28;20495;-77
2021/12/18 08:27:12;;;;;;;5.30;2.77;;;;;;;14.59;62.58;103897.22;5032272;28;20563;-77
2021/12/18 08:29:38;;;;;;;5.38;2.58;;;;;;;14.59;62.94;103902.44;4998863;28;20030;-78
2021/12/18 08:32:04;;;;;;;5.40;2.80;;;;;;;14.60;62.96;103898.97;5047588;28;20464;-78
2021/12/18 08:34:29;;;;;;;5.73;2.43;;;;;;;14.60;63.02;103898.97;5039410;28;20045;-75
2021/12/18 08:36:54;;;;;;;4.93;2.50;;;;;;;14.61;62.86;103905.06;5029723;28;20087;-78
2021/12/18 08:39:20;;;;;;;4.03;2.37;;;;;;;14.60;63.07;103901.59;5052497;28;20060;-69
2021/12/18 08:41:46;;;;;;;7.43;2.60;;;;;;;14.63;62.86;103898.16;5034358;28;20052;-76
2021/12/18 08:44:12;;;;;;;6.57;2.60;;;;;;;14.56;63.01;103889.31;5051809;28;20120;-76
2021/12/18 08:46:38;;;;;;;7.45;2.53;;;;;;;14.62;62.58;103896.38;5051168;28;20100;-75
2021/12/18 08:49:04;;;;;;;4.35;2.60;;;;;;;14.62;62.99;103899.00;5035261;28;20084;-76
2021/12/18 08:51:29;;;;;;;6.25;2.47;;;;;;;14.62;63.16;103897.28;5056343;28;20064;-77
2021/12/18 08:53:55;;;;;;;4.93;2.60;;;;;;;14.60;63.28;103898.97;5052423;28;20050;-76
2021/12/18 08:56:20;;;;;;;7.70;2.40;;;;;;;14.59;63.15;103899.84;5051693;28;20036;-76
2021/12/18 08:58:46;;;;;;;3.73;2.40;;;;;;;14.61;63.31;103900.75;5017742;28;20025;-76
2021/12/18 09:01:11;;;;;;;5.87;2.50;;;;;;;14.64;63.25;103902.53;5030758;28;20040;-74
2021/12/18 09:03:36;;;;;;;8.47;2.70;;;;;;;14.56;63.25;103891.94;5044741;28;20041;-77
2021/12/18 09:06:02;;;;;;;8.10;3.00;;;;;;;14.59;63.88;103897.22;5008331;28;20040;-75
2021/12/18 09:08:28;;;;;;;7.65;3.00;;;;;;;14.59;63.75;103905.06;5044122;28;20025;-76
2021/12/18 09:10:54;;;;;;;6.70;2.90;;;;;;;14.58;62.65;103911.13;5045805;28;20044;-76
2021/12/18 09:13:19;;;;;;;10.00;3.13;;;;;;;14.55;62.88;103905.84;5048598;28;20044;-78
2021/12/18 09:15:45;;;;;;;5.73;2.73;;;;;;;14.52;62.71;103908.44;5044932;28;20741;-77
2021/12/18 09:18:11;;;;;;;8.80;3.00;;;;;;;14.48;62.38;103904.00;5045085;28;20383;-75
2021/12/18 09:20:36;;;;;;;7.90;2.90;;;;;;;14.49;62.39;103906.63;5030573;28;20040;-75
2021/12/18 09:23:02;;;;;;;8.90;3.50;;;;;;;14.47;62.08;103908.31;5043401;28;20029;-76
2021/12/18 09:25:28;;;;;;;6.60;3.00;;;;;;;14.44;61.88;103908.28;5044304;28;20032;-76
2021/12/18 09:27:56;;;;;;;7.60;3.30;;;;;;;14.43;62.02;103913.47;5035115;28;20045;-76
2021/12/18 09:30:24;;;;;;;8.02;3.35;;;;;;;14.41;62.06;103904.75;5040434;28;20030;-76
2021/12/18 09:32:50;;;;;;;6.97;2.88;;;;;;;14.41;61.73;103909.97;5044574;28;20104;-78
2021/12/18 09:35:15;;;;;;;6.03;2.85;;;;;;;14.41;61.73;103909.97;5044355;28;20087;-76
2021/12/18 09:37:41;;;;;;;9.47;3.00;;;;;;;14.41;61.81;103907.38;5028339;28;20353;-77
2021/12/18 09:40:09;;;;;;;8.97;3.07;;;;;;;14.39;62.24;103907.31;5042826;28;20021;-75
2021/12/18 09:42:36;;;;;;;7.82;2.80;;;;;;;14.39;62.38;103904.72;5044472;28;20029;-77
2021/12/18 09:45:01;;;;;;;;;;;;;;;14.50;62.50;103915.38;5043514;28;20025;-79
2021/12/18 09:47:26;;;;;;;4.23;2.23;;;;;;;14.44;62.81;103910.00;5043988;28;19924;-77
2021/12/18 09:49:54;;;;;;;6.73;2.50;;;;;;;14.41;62.87;103899.53;5033265;28;20025;-72
2021/12/18 09:52:20;;;;;;;5.97;2.40;;;;;;;14.46;62.84;103908.31;5046744;28;20117;-77
2021/12/18 09:54:45;;;;;;;10.47;2.90;;;;;;;14.48;63.01;103904.84;5045608;28;20119;-75
2021/12/18 09:57:11;;;;;;;3.77;2.20;;;;;;;14.48;62.96;103901.38;5043619;28;20029;-76
2021/12/18 09:59:36;;;;;;;4.00;2.47;;;;;;;14.50;62.94;103897.94;5051864;28;20044;-76
2021/12/18 10:02:02;;;;;;;5.13;2.20;;;;;;;14.50;62.72;103895.31;5039998;28;20040;-76
2021/12/18 10:04:34;;;;;;;4.68;2.10;;;;;;;14.47;63.34;103881.31;5047249;28;20037;-75
2021/12/18 10:07:01;;;;;;;6.30;2.25;;;;;;;14.50;62.71;103890.09;5066400;28;20051;-76
2021/12/18 10:09:27;;;;;;;5.45;2.00;;;;;;;14.54;63.68;103888.41;5045733;28;20059;-75
2021/12/18 10:11:59;;;;;;;3.57;2.17;;;;;;;14.55;63.31;103892.78;5060988;28;20025;-76
2021/12/18 10:14:40;;;;;;;4.15;2.10;;;;;;;14.58;63.50;103884.13;5069179;28;20033;-74
2021/12/18 10:17:37;;;;;;;3.53;2.00;;;;;;;14.58;63.41;103884.13;5058892;28;20048;-75
2021/12/18 10:20:16;;;;;;;3.53;2.10;;;;;;;14.56;63.48;103875.38;5054524;28;20565;-76
2021/12/18 10:22:52;;;;;;;3.58;1.83;;;;;;;14.59;63.23;103881.53;5060146;28;20033;-74
2021/12/18 10:25:21;;;;;;;3.08;1.77;;;;;;;14.59;63.15;103878.03;5059485;28;20089;-70
2021/12/18 10:28:09;;;;;;;3.08;1.70;;;;;;;14.58;63.24;103871.06;5061275;28;20048;-76
2021/12/18 10:30:35;;;;;;;4.22;1.70;;;;;;;14.59;63.39;103875.41;5054923;28;20407;-75
2021/12/18 10:33:01;;;;;;;;;;;;;;;14.68;62.88;103875.63;5066035;28;20052;-75
2021/12/18 10:35:43;;;;;;;3.17;1.87;;;;;;;14.61;63.28;103872.00;5060124;28;19912;-76
2021/12/18 10:38:29;;;;;;;6.78;2.08;;;;;;;14.59;62.96;103878.91;5059710;28;20809;-76
2021/12/18 10:40:55;;;;;;;2.90;1.98;;;;;;;14.60;62.75;103877.16;5041481;28;20051;-72
2021/12/18 10:43:20;;;;;;;3.60;1.97;;;;;;;14.61;62.71;103873.72;5061429;28;20083;-76
2021/12/18 10:45:46;;;;;;;3.47;2.07;;;;;;;14.59;62.28;103873.69;5061894;28;20041;-77
2021/12/18 10:48:16;;;;;;;4.80;2.10;;;;;;;14.58;62.49;103873.69;5068078;28;20072;-75
2021/12/18 10:50:50;;;;;;;5.72;2.28;;;;;;;14.56;62.54;103873.63;5056250;28;20124;-76
2021/12/18 10:53:17;;;;;;;4.45;2.13;;;;;;;14.56;62.49;103864.94;5066216;28;20059;-76
2021/12/18 10:56:01;;;;;;;4.07;2.35;;;;;;;14.56;62.47;103868.41;5053479;28;20029;-75
2021/12/18 10:58:30;;;;;;;5.68;2.30;;;;;;;14.47;61.80;103852.59;5063904;28;20036;-75
2021/12/18 11:01:12;;;;;;;5.68;2.28;;;;;;;14.53;62.39;103865.72;5047510;28;20024;-75
2021/12/18 11:03:46;;;;;;;7.43;2.85;;;;;;;14.48;60.86;103862.19;5047800;28;20027;-76
2021/12/18 11:06:28;;;;;;;5.60;2.80;;;;;;;14.46;60.28;103869.13;5067014;28;20028;-76
2021/12/18 11:09:07;;;;;;;5.68;3.13;;;;;;;14.34;60.35;103867.19;5039639;28;20067;-75
2021/12/18 11:14:18;;;;;;;8.80;2.90;;;;;;;14.21;59.81;103866.06;5067813;28;20033;-76
2021/12/18 11:16:50;;;;;;;5.18;2.80;;;;;;;14.13;59.49;103867.66;5047054;28;20119;-76
2021/12/18 11:19:18;;;;;;;5.63;2.85;;;;;;;14.08;59.28;103869.31;5049075;28;20029;-72
2021/12/18 11:22:07;;;;;;;5.40;2.80;;;;;;;14.03;59.98;103866.59;5058767;28;20033;-75
2021/12/18 11:24:37;;;;;;;6.32;3.00;;;;;;;13.80;58.88;103864.44;5036587;28;20041;-75
2021/12/18 11:27:11;;;;;;;5.65;3.08;;;;;;;13.74;59.41;103873.03;5068106;28;20045;-74
2021/12/18 11:29:54;;;;;;;6.53;3.13;;;;;;;13.69;60.22;103868.56;5063211;28;20418;-75
2021/12/18 11:32:26;;;;;;;4.97;2.53;;;;;;;13.68;60.58;103864.22;5049589;28;20049;-75
2021/12/18 11:34:54;;;;;;;6.05;2.85;;;;;;;13.67;61.00;103852.88;5039503;28;20035;-75
2021/12/18 11:37:22;;;;;;;4.82;2.70;;;;;;;13.79;61.22;103854.84;5056894;28;20037;-76
2021/12/18 11:39:49;;;;;;;4.28;2.70;;;;;;;13.85;61.49;103854.09;5042113;28;20107;-76
2021/12/18 11:42:15;;;;;;;;;;;;;;;13.96;61.06;103860.38;5043692;28;20036;-73
2021/12/18 11:45:03;;;;;;;4.63;2.70;;;;;;;13.96;61.34;103854.31;5039632;28;19923;-76
2021/12/18 11:47:33;;;;;;;4.40;2.60;;;;;;;13.97;61.14;103850.84;5056694;28;20031;-73
2021/12/18 11:50:19;;;;;;;4.97;2.70;;;;;;;14.01;60.99;103858.75;5053950;28;20541;-76
2021/12/18 11:52:55;;;;;;;4.28;2.70;;;;;;;14.02;61.26;103850.06;5044965;28;20033;-74
2021/12/18 11:55:22;;;;;;;5.38;2.55;;;;;;;14.04;61.25;103845.78;5053708;28;20466;-77
2021/12/18 11:57:50;;;;;;;4.88;2.53;;;;;;;14.06;61.17;103840.56;5055977;28;20374;-77
2021/12/18 12:00:15;;;;;;;4.32;2.70;;;;;;;14.08;61.35;103841.47;5065214;28;20038;-76
2021/12/18 12:02:53;;;;;;;4.10;2.57;;;;;;;14.11;61.22;103836.31;5055089;28;20025;-76
2021/12/18 12:05:39;;;;;;;3.55;2.60;;;;;;;14.14;61.33;103832.88;5058220;28;20029;-74
2021/12/18 12:08:25;;;;;;;;;;;;;;;14.21;61.34;103830.41;5062932;28;20036;-76
2021/12/18 12:11:15;;;;;;;3.33;2.30;;;;;;;14.16;61.17;103818.97;5049994;28;19963;-76
2021/12/18 12:14:08;;;;;;;3.08;2.13;;;;;;;14.18;61.11;103821.63;5055655;28;20530;-76
2021/12/18 12:16:42;;;;;;;3.97;2.53;;;;;;;14.17;61.17;103820.75;5055912;28;20105;-75
2021/12/18 12:19:09;;;;;;;3.92;2.42;;;;;;;14.16;60.96;103818.97;5037280;28;20468;-76
2021/12/18 12:21:38;;;;;;;;;;;;;;;14.27;61.24;103819.16;5039892;28;20037;-74